createdAt,value
2022-11-25T00:08:13.607Z,58.58
2022-11-25T00:23:15.497Z,47.35
2022-11-25T00:38:17.471Z,42.88
2022-11-25T00:53:19.327Z,45.38
2022-11-25T01:08:21.311Z,42.85
2022-11-25T01:23:23.211Z,40.20
2022-11-25T01:38:25.077Z,49.90
2022-11-25T01:53:27.135Z,45.50
2022-11-25T02:08:30.079Z,51.53
2022-11-25T02:23:43.998Z,44.17
2022-11-25T02:38:52.155Z,49.72
2022-11-25T02:53:55.089Z,57.57
2022-11-25T03:08:58.063Z,57.17
2022-11-25T03:24:00.018Z,52.85
2022-11-25T03:39:01.919Z,49.85
2022-11-25T03:54:04.027Z,47.42
2022-11-25T04:09:14.949Z,41.42
2022-11-25T04:24:16.791Z,42.15
2022-11-25T04:39:18.683Z,43.25
2022-11-25T04:54:20.524Z,43.85
2022-11-25T05:09:22.487Z,36.88
2022-11-25T05:24:25.715Z,38.05
2022-11-25T05:39:27.625Z,46.53
2022-11-25T05:54:29.564Z,59.63
2022-11-25T06:09:31.847Z,58.30
2022-11-25T06:24:33.814Z,58.67
2022-11-25T06:39:35.815Z,50.10
2022-11-25T06:54:41.270Z,47.72
2022-11-25T07:09:43.304Z,50.20
2022-11-25T07:24:45.133Z,47.53
2022-11-25T07:39:46.978Z,43.25
2022-11-25T07:54:48.875Z,52.10
2022-11-25T08:09:51.625Z,41.65
2022-11-25T08:24:53.588Z,51.63
2022-11-25T08:39:56.080Z,47.15
2022-11-25T08:54:58.956Z,47.92
2022-11-25T09:10:00.860Z,38.63
2022-11-25T09:25:02.827Z,43.80
2022-11-25T09:40:07.197Z,42.30
2022-11-25T09:55:15.655Z,39.00
2022-11-25T10:10:27.318Z,32.50
2022-11-25T10:25:34.586Z,28.17
2022-11-25T10:40:36.528Z,23.83
2022-11-25T10:55:38.515Z,22.33
2022-11-25T11:10:40.572Z,23.63
2022-11-25T11:25:54.794Z,22.90
2022-11-25T11:41:21.161Z,20.85
2022-11-25T11:56:50.626Z,23.20
2022-11-25T12:12:02.740Z,25.70
2022-11-25T12:42:26.214Z,25.02
2022-11-25T12:57:49.196Z,22.73
2022-11-25T13:13:00.586Z,20.25
2022-11-25T13:28:24.085Z,20.85
2022-11-25T13:43:26.352Z,18.58
2022-11-25T13:58:31.603Z,16.17
2022-11-25T14:13:51.958Z,14.88
2022-11-25T14:29:32.057Z,12.52
2022-11-25T14:44:46.358Z,12.98
2022-11-25T14:59:48.724Z,10.90
2022-11-25T15:14:55.125Z,14.35
2022-11-25T15:29:58.546Z,23.30
2022-11-25T15:45:08.910Z,37.13
2022-11-25T16:00:17.085Z,32.53
2022-11-25T16:15:22.128Z,22.13
2022-11-25T16:30:25.749Z,25.88
2022-11-25T16:45:30.716Z,27.90
2022-11-25T17:00:34.408Z,28.42
2022-11-25T17:15:38.601Z,30.10
2022-11-25T17:30:40.923Z,22.05
2022-11-25T17:45:44.474Z,21.88
2022-11-25T18:00:46.563Z,18.05
2022-11-25T18:15:48.882Z,17.70
2022-11-25T18:30:51.761Z,16.90
2022-11-25T18:45:54.712Z,19.35
2022-11-25T19:01:02.784Z,21.90
2022-11-25T19:16:13.456Z,24.03
2022-11-25T19:31:17.543Z,20.73
2022-11-25T19:46:33.034Z,21.33
2022-11-25T20:01:44.866Z,27.23
2022-11-25T20:16:47.644Z,25.53
2022-11-25T20:31:50.131Z,28.00
2022-11-25T20:46:52.127Z,27.95
2022-11-25T21:01:54.808Z,27.52
2022-11-25T21:16:56.995Z,33.45
2022-11-25T21:31:58.994Z,35.25
2022-11-25T21:47:01.133Z,38.65
2022-11-25T22:02:18.732Z,35.28
2022-11-25T22:17:20.817Z,41.92
2022-11-25T22:32:22.888Z,39.53
2022-11-25T22:47:35.416Z,42.15
2022-11-25T23:02:37.757Z,43.25
2022-11-25T23:17:40.746Z,40.88
2022-11-25T23:32:43.479Z,41.90
2022-11-25T23:47:47.110Z,36.05
